Time;durP1;ratioP1;P1;durP2;ratioP2;P2;SDS_P1;SDS_P2;PMS_P1;PMS_P2;Temp;Humidity;BMP_temperature;BMP_pressure;BME280_temperature;BME280_humidity;BME280_pressure;Samples;Min_cycle;Max_cycle;Signal;HPM_P1;HPM_P2
2022/04/13 00:00:31;;;;;;;13.40;7.20;;;;;;;;;;5053235;28;20446;-64
2022/04/13 00:02:58;;;;;;;12.20;6.70;;;;;;;;;;5053184;28;20036;-64
2022/04/13 00:05:24;;;;;;;16.38;7.53;;;;;;;;;;5053050;28;20545;-65
2022/04/13 00:07:50;;;;;;;14.93;7.10;;;;;;;;;;5053218;28;20104;-64
2022/04/13 00:10:16;;;;;;;13.85;7.10;;;;;;;;;;5052730;28;20388;-65
2022/04/13 00:12:42;;;;;;;15.30;7.53;;;;;;;;;;5052977;28;20052;-65
2022/04/13 00:15:09;;;;;;;11.88;6.75;;;;;;;;;;5052802;28;20029;-64
2022/04/13 00:17:36;;;;;;;13.15;7.22;;;;;;;;;;5053150;28;20028;-64
2022/04/13 00:20:02;;;;;;;14.63;7.60;;;;;;;;;;5053003;28;20498;-64
2022/04/13 00:22:28;;;;;;;15.18;7.90;;;;;;;;;;5052788;28;20025;-64
2022/04/13 00:24:55;;;;;;;12.10;6.55;;;;;;;;;;5053105;28;20024;-65
2022/04/13 00:27:21;;;;;;;14.38;7.05;;;;;;;;;;5052624;28;20151;-65
2022/04/13 00:29:47;;;;;;;16.63;8.15;;;;;;;;;;5052778;28;20017;-65
2022/04/13 00:32:13;;;;;;;22.58;10.10;;;;;;;;;;5052486;28;20021;-64
2022/04/13 00:34:39;;;;;;;15.23;7.85;;;;;;;;;;5052547;28;20029;-63
2022/04/13 00:37:05;;;;;;;18.45;7.75;;;;;;;;;;5052326;28;20127;-64
2022/04/13 00:39:31;;;;;;;14.98;7.72;;;;;;;;;;5052192;28;20037;-64
2022/04/13 00:41:58;;;;;;;14.65;7.53;;;;;;;;;;5052171;28;20025;-64
2022/04/13 00:44:24;;;;;;;19.40;7.47;;;;;;;;;;5051770;28;20033;-65
2022/04/13 00:46:50;;;;;;;13.10;6.70;;;;;;;;;;5052061;28;20021;-65
2022/04/13 00:49:17;;;;;;;14.93;7.30;;;;;;;;;;5051941;28;20033;-64
2022/04/13 00:51:43;;;;;;;14.05;7.47;;;;;;;;;;5052063;28;20028;-65
2022/04/13 00:54:11;;;;;;;12.05;7.20;;;;;;;;;;5051915;28;20388;-65
2022/04/13 00:56:39;;;;;;;12.65;6.70;;;;;;;;;;5051672;28;20049;-64
2022/04/13 00:59:10;;;;;;;17.52;8.13;;;;;;;;;;5051841;28;20040;-64
2022/04/13 01:01:37;;;;;;;13.73;7.28;;;;;;;;;;5051910;28;20035;-64
2022/04/13 01:04:04;;;;;;;12.88;7.05;;;;;;;;;;5051816;28;20128;-64
2022/04/13 01:06:30;;;;;;;13.82;7.50;;;;;;;;;;5051821;28;20032;-64
2022/04/13 01:08:58;;;;;;;14.57;7.50;;;;;;;;;;5051716;28;20091;-63
2022/04/13 01:11:26;;;;;;;12.88;7.25;;;;;;;;;;5051788;28;20021;-63
2022/04/13 01:13:54;;;;;;;15.65;6.88;;;;;;;;;;5051782;28;20025;-64
2022/04/13 01:16:21;;;;;;;22.67;10.80;;;;;;;;;;5051644;28;20025;-64
2022/04/13 01:18:47;;;;;;;17.20;9.00;;;;;;;;;;5051770;28;20041;-63
2022/04/13 01:21:15;;;;;;;17.73;8.32;;;;;;;;;;5051667;28;20358;-64
2022/04/13 01:23:42;;;;;;;13.80;7.15;;;;;;;;;;5051755;28;20027;-64
2022/04/13 01:26:11;;;;;;;14.23;7.10;;;;;;;;;;5051417;28;20063;-64
2022/04/13 01:28:37;;;;;;;13.82;7.75;;;;;;;;;;5051610;28;20029;-64
2022/04/13 01:31:03;;;;;;;14.10;7.53;;;;;;;;;;5051475;28;20047;-64
2022/04/13 01:33:30;;;;;;;13.45;6.82;;;;;;;;;;5051728;28;20477;-64
2022/04/13 01:36:02;;;;;;;16.63;7.85;;;;;;;;;;5051480;28;20090;-66
2022/04/13 01:38:31;;;;;;;15.93;7.43;;;;;;;;;;5051189;28;20103;-64
2022/04/13 01:40:58;;;;;;;12.93;7.57;;;;;;;;;;5051426;28;20029;-65
2022/04/13 01:43:25;;;;;;;18.23;8.38;;;;;;;;;;5051450;28;20361;-64
2022/04/13 01:45:51;;;;;;;12.43;7.28;;;;;;;;;;5051300;28;20025;-64
2022/04/13 01:48:18;;;;;;;13.23;7.30;;;;;;;;;;5051502;28;20389;-66
2022/04/13 01:50:45;;;;;;;14.20;7.28;;;;;;;;;;5051341;28;20029;-64
2022/04/13 01:53:11;;;;;;;14.77;7.45;;;;;;;;;;5050910;28;20496;-65
2022/04/13 01:55:37;;;;;;;15.05;7.50;;;;;;;;;;5049905;28;20090;-63
2022/04/13 01:58:03;;;;;;;14.70;7.72;;;;;;;;;;5050801;28;20041;-65
2022/04/13 02:00:29;;;;;;;17.73;8.85;;;;;;;;;;5051108;28;20021;-64
2022/04/13 02:02:55;;;;;;;16.67;8.57;;;;;;;;;;5052669;28;20029;-63
2022/04/13 02:05:21;;;;;;;16.63;7.75;;;;;;;;;;5052491;28;20020;-65
2022/04/13 02:07:47;;;;;;;15.93;8.32;;;;;;;;;;5050368;28;20025;-63
2022/04/13 02:10:13;;;;;;;15.18;7.72;;;;;;;;;;5050914;28;20033;-65
2022/04/13 02:12:41;;;;;;;15.73;7.90;;;;;;;;;;5050728;28;20056;-64
2022/04/13 02:15:08;;;;;;;16.70;8.23;;;;;;;;;;5050455;28;20107;-64
2022/04/13 02:17:34;;;;;;;14.63;7.88;;;;;;;;;;5049980;28;20052;-64
2022/04/13 02:20:00;;;;;;;12.45;7.25;;;;;;;;;;5050712;28;20024;-63
2022/04/13 02:22:26;;;;;;;17.50;8.07;;;;;;;;;;5050538;28;20036;-65
2022/04/13 02:24:52;;;;;;;16.65;7.70;;;;;;;;;;5050474;28;20021;-63
2022/04/13 02:27:18;;;;;;;13.93;7.68;;;;;;;;;;5050615;28;20053;-64
2022/04/13 02:29:47;;;;;;;16.73;7.88;;;;;;;;;;5050548;28;20075;-64
2022/04/13 02:32:13;;;;;;;13.13;7.38;;;;;;;;;;5050563;28;20029;-64
2022/04/13 02:34:39;;;;;;;21.27;11.25;;;;;;;;;;5050759;28;20033;-64
2022/04/13 02:37:05;;;;;;;18.25;10.10;;;;;;;;;;5050641;28;20025;-64
2022/04/13 02:39:31;;;;;;;13.88;7.90;;;;;;;;;;5050577;28;20446;-66
2022/04/13 02:41:57;;;;;;;14.90;6.97;;;;;;;;;;5050369;28;20100;-66
2022/04/13 02:44:23;;;;;;;15.68;7.50;;;;;;;;;;5050415;28;20064;-66
2022/04/13 02:46:49;;;;;;;15.55;7.55;;;;;;;;;;5050442;28;20021;-65
2022/04/13 02:49:15;;;;;;;14.20;7.43;;;;;;;;;;5050329;28;20029;-63
2022/04/13 02:51:41;;;;;;;16.45;7.63;;;;;;;;;;5050701;28;20121;-63
2022/04/13 02:54:07;;;;;;;14.75;8.02;;;;;;;;;;5050210;28;20053;-65
2022/04/13 02:56:33;;;;;;;15.45;8.02;;;;;;;;;;5050115;28;20048;-64
2022/04/13 02:58:59;;;;;;;14.32;7.72;;;;;;;;;;5050315;28;20055;-65
2022/04/13 03:01:25;;;;;;;13.23;7.63;;;;;;;;;;5050670;28;20036;-64
2022/04/13 03:03:51;;;;;;;14.55;7.75;;;;;;;;;;5050576;28;20029;-65
2022/04/13 03:06:18;;;;;;;16.55;8.00;;;;;;;;;;5050423;28;20029;-67
2022/04/13 03:08:45;;;;;;;18.42;7.65;;;;;;;;;;5053740;28;20028;-65
2022/04/13 03:11:11;;;;;;;15.30;8.30;;;;;;;;;;5054369;28;20024;-64
2022/04/13 03:13:37;;;;;;;15.25;8.02;;;;;;;;;;5053996;28;20037;-64
2022/04/13 03:16:04;;;;;;;15.60;7.70;;;;;;;;;;5054091;28;20086;-65
2022/04/13 03:18:30;;;;;;;15.40;7.63;;;;;;;;;;5054210;28;20029;-64
2022/04/13 03:20:56;;;;;;;15.63;7.95;;;;;;;;;;5053996;28;20074;-66
2022/04/13 03:23:22;;;;;;;15.68;7.97;;;;;;;;;;5054112;28;20036;-64
2022/04/13 03:25:48;;;;;;;16.38;8.45;;;;;;;;;;5054143;28;20473;-64
2022/04/13 03:28:16;;;;;;;17.95;8.45;;;;;;;;;;5053673;28;20428;-64
2022/04/13 03:30:42;;;;;;;17.75;7.72;;;;;;;;;;5053828;28;20747;-66
2022/04/13 03:33:08;;;;;;;14.65;8.55;;;;;;;;;;5053824;28;20029;-65
2022/04/13 03:35:34;;;;;;;17.73;8.52;;;;;;;;;;5052578;28;20443;-64
2022/04/13 03:38:00;;;;;;;17.48;8.27;;;;;;;;;;5053712;28;20033;-63
2022/04/13 03:40:26;;;;;;;24.23;9.27;;;;;;;;;;5053318;28;20091;-63
2022/04/13 03:42:52;;;;;;;16.38;9.10;;;;;;;;;;5053316;28;20035;-64
2022/04/13 03:45:19;;;;;;;17.05;8.95;;;;;;;;;;5053193;28;20425;-64
2022/04/13 03:47:45;;;;;;;35.25;18.63;;;;;;;;;;5053311;28;20498;-64
2022/04/13 03:50:11;;;;;;;18.90;9.23;;;;;;;;;;5053256;28;20035;-65
2022/04/13 03:52:37;;;;;;;16.48;9.13;;;;;;;;;;5052836;28;20050;-64
2022/04/13 03:55:04;;;;;;;17.48;8.60;;;;;;;;;;5052887;28;20033;-64
2022/04/13 03:57:31;;;;;;;16.55;7.80;;;;;;;;;;5053229;28;20056;-64
2022/04/13 03:59:57;;;;;;;17.75;8.82;;;;;;;;;;5052969;28;20033;-64
2022/04/13 04:02:24;;;;;;;18.85;9.25;;;;;;;;;;5053019;28;20443;-64
2022/04/13 04:04:50;;;;;;;17.95;8.13;;;;;;;;;;5052942;28;20063;-64
2022/04/13 04:07:16;;;;;;;18.38;9.30;;;;;;;;;;5052869;28;20020;-65
2022/04/13 04:09:43;;;;;;;15.63;8.55;;;;;;;;;;5052827;28;20033;-63
2022/04/13 04:12:09;;;;;;;18.13;9.00;;;;;;;;;;5052960;28;20029;-63
2022/04/13 04:14:35;;;;;;;21.52;10.40;;;;;;;;;;5052844;28;20029;-63
2022/04/13 04:17:01;;;;;;;23.73;11.10;;;;;;;;;;5053017;28;20024;-64
2022/04/13 04:19:27;;;;;;;19.63;10.23;;;;;;;;;;5051872;28;20401;-65
2022/04/13 04:21:55;;;;;;;23.80;11.63;;;;;;;;;;5052719;28;20028;-66
2022/04/13 04:24:21;;;;;;;26.58;11.93;;;;;;;;;;5052885;28;20037;-65
2022/04/13 04:26:48;;;;;;;21.55;11.23;;;;;;;;;;5052463;28;20031;-66
2022/04/13 04:29:14;;;;;;;25.50;11.52;;;;;;;;;;5052765;28;20029;-66
2022/04/13 04:31:59;;;;;;;22.67;11.85;;;;;;;;;;5052630;28;20098;-66
2022/04/13 04:34:25;;;;;;;28.05;13.32;;;;;;;;;;5052636;28;20021;-67
2022/04/13 04:36:51;;;;;;;21.55;11.50;;;;;;;;;;5052661;28;20021;-66
2022/04/13 04:39:17;;;;;;;19.55;10.63;;;;;;;;;;5052500;28;20163;-64
2022/04/13 04:41:43;;;;;;;14.00;8.98;;;;;;;;;;5052346;28;20025;-66
2022/04/13 04:44:10;;;;;;;15.98;9.18;;;;;;;;;;5052470;28;20047;-66
2022/04/13 04:46:37;;;;;;;15.85;8.20;;;;;;;;;;5052233;28;20024;-64
2022/04/13 04:49:06;;;;;;;16.08;9.50;;;;;;;;;;5052477;28;20701;-66
2022/04/13 04:51:32;;;;;;;18.60;8.43;;;;;;;;;;5052080;28;20070;-66
2022/04/13 04:53:59;;;;;;;19.38;10.98;;;;;;;;;;5051954;28;20060;-65
2022/04/13 04:56:25;;;;;;;24.25;11.50;;;;;;;;;;5051950;28;20045;-65
2022/04/13 04:58:51;;;;;;;34.70;16.30;;;;;;;;;;5051791;28;20033;-67
2022/04/13 05:01:17;;;;;;;35.65;17.30;;;;;;;;;;5051838;28;20070;-66
2022/04/13 05:03:48;;;;;;;35.35;14.85;;;;;;;;;;5051848;28;20033;-66
2022/04/13 05:06:14;;;;;;;29.73;14.90;;;;;;;;;;5044603;28;20017;-65
2022/04/13 05:08:40;;;;;;;31.23;12.82;;;;;;;;;;5031137;28;20551;-65
2022/04/13 05:11:07;;;;;;;27.48;13.38;;;;;;;;;;5031898;28;20029;-69
2022/04/13 05:13:33;;;;;;;24.42;11.25;;;;;;;;;;5033850;28;20416;-66
2022/04/13 05:15:59;;;;;;;16.13;8.55;;;;;;;;;;5031641;28;20469;-67
2022/04/13 05:18:25;;;;;;;12.45;7.03;;;;;;;;;;5031686;28;20068;-67
2022/04/13 05:20:52;;;;;;;14.75;6.40;;;;;;;;;;5031808;28;20074;-67
2022/04/13 05:23:19;;;;;;;11.25;5.13;;;;;;;;;;5031484;28;20026;-67
2022/04/13 05:25:46;;;;;;;11.27;5.30;;;;;;;;;;5031561;28;20025;-67
2022/04/13 05:28:12;;;;;;;16.10;5.70;;;;;;;;;;5031624;28;20045;-66
2022/04/13 05:30:38;;;;;;;9.52;5.32;;;;;;;;;;5031646;28;20029;-67
2022/04/13 05:33:06;;;;;;;13.02;5.80;;;;;;;;;;5031791;28;20030;-67
2022/04/13 05:35:32;;;;;;;12.57;5.20;;;;;;;;;;5031596;28;20029;-66
2022/04/13 05:38:02;;;;;;;9.70;4.80;;;;;;;;;;5031368;28;20045;-65
2022/04/13 05:40:28;;;;;;;9.68;4.75;;;;;;;;;;5031592;28;20021;-65
2022/04/13 05:42:54;;;;;;;9.88;5.40;;;;;;;;;;5031449;28;20025;-64
2022/04/13 05:45:20;;;;;;;8.20;4.55;;;;;;;;;;5031156;28;20033;-72
2022/04/13 05:47:47;;;;;;;12.40;4.68;;;;;;;;;;5031135;28;20230;-65
2022/04/13 05:50:13;;;;;;;9.13;5.22;;;;;;;;;;5031498;28;20630;-68
2022/04/13 05:52:40;;;;;;;10.27;5.07;;;;;;;;;;5030763;28;20029;-67
2022/04/13 05:55:07;;;;;;;9.35;4.53;;;;;;;;;;5030474;28;20058;-65
2022/04/13 05:57:33;;;;;;;9.07;4.70;;;;;;;;;;5031235;28;20079;-66
2022/04/13 06:00:00;;;;;;;12.40;5.22;;;;;;;;;;5030986;28;20052;-66
2022/04/13 06:02:26;;;;;;;10.27;4.65;;;;;;;;;;5031012;28;20072;-71
2022/04/13 06:04:52;;;;;;;8.75;4.57;;;;;;;;;;5030716;28;20029;-66
2022/04/13 06:07:18;;;;;;;8.75;5.00;;;;;;;;;;5030640;28;20075;-66
2022/04/13 06:09:44;;;;;;;9.05;4.88;;;;;;;;;;5030724;28;20061;-65
2022/04/13 06:12:11;;;;;;;9.15;4.93;;;;;;;;;;5030730;28;20033;-66
2022/04/13 06:14:37;;;;;;;13.00;5.45;;;;;;;;;;5030077;28;20064;-66
2022/04/13 06:17:03;;;;;;;8.02;5.00;;;;;;;;;;5030909;28;20044;-71
2022/04/13 06:19:29;;;;;;;9.95;5.07;;;;;;;;;;5030474;28;20037;-65
2022/04/13 06:21:55;;;;;;;16.75;6.13;;;;;;;;;;5030788;28;20057;-66
2022/04/13 06:24:21;;;;;;;11.10;4.93;;;;;;;;;;5030474;28;20021;-65
2022/04/13 06:26:47;;;;;;;9.63;4.70;;;;;;;;;;5030660;28;20083;-64
2022/04/13 06:29:13;;;;;;;9.38;4.90;;;;;;;;;;5047884;28;20076;-61
2022/04/13 06:31:39;;;;;;;13.07;5.60;;;;;;;;;;5050257;28;20021;-63
2022/04/13 06:34:05;;;;;;;10.73;4.97;;;;;;;;;;5050133;28;20091;-60
2022/04/13 06:36:31;;;;;;;11.20;5.57;;;;;;;;;;5045848;28;20183;-61
2022/04/13 06:38:57;;;;;;;12.80;5.47;;;;;;;;;;5048068;28;20381;-61
2022/04/13 06:41:23;;;;;;;14.27;5.57;;;;;;;;;;5049824;28;20036;-61
2022/04/13 06:43:52;;;;;;;11.27;5.70;;;;;;;;;;5053617;28;20508;-60
2022/04/13 06:46:18;;;;;;;8.52;4.45;;;;;;;;;;5034418;28;20025;-60
2022/04/13 06:48:44;;;;;;;11.18;4.50;;;;;;;;;;5033491;28;20037;-60
2022/04/13 06:51:10;;;;;;;9.27;3.92;;;;;;;;;;5034330;28;20032;-60
2022/04/13 06:53:36;;;;;;;9.82;3.65;;;;;;;;;;5033958;28;20156;-65
2022/04/13 06:56:02;;;;;;;5.22;3.22;;;;;;;;;;5033923;28;20140;-63
2022/04/13 06:58:28;;;;;;;7.88;3.25;;;;;;;;;;5033759;28;20046;-65
2022/04/13 07:00:57;;;;;;;7.07;3.25;;;;;;;;;;5034250;28;20122;-67
2022/04/13 07:03:23;;;;;;;5.00;3.03;;;;;;;;;;5034203;28;20033;-61
2022/04/13 07:05:49;;;;;;;8.02;3.60;;;;;;;;;;5033552;28;20026;-67
2022/04/13 07:08:16;;;;;;;7.18;3.50;;;;;;;;;;5033470;28;20025;-60
2022/04/13 07:10:42;;;;;;;8.95;3.70;;;;;;;;;;5034246;28;20140;-65
2022/04/13 07:13:09;;;;;;;23.85;10.18;;;;;;;;;;5033448;28;20101;-60
2022/04/13 07:15:35;;;;;;;10.77;4.78;;;;;;;;;;5033327;28;20109;-60
2022/04/13 07:18:01;;;;;;;20.00;8.68;;;;;;;;;;5033136;28;20022;-62
2022/04/13 07:20:27;;;;;;;9.68;5.03;;;;;;;;;;5033438;28;20029;-60
2022/04/13 07:22:54;;;;;;;8.93;3.95;;;;;;;;;;5032811;28;20036;-62
2022/04/13 07:25:21;;;;;;;7.85;3.47;;;;;;;;;;5032892;28;20535;-66
2022/04/13 07:27:47;;;;;;;8.35;3.67;;;;;;;;;;5033703;28;20039;-64
2022/04/13 07:30:14;;;;;;;17.92;7.70;;;;;;;;;;5032943;28;20030;-60
2022/04/13 07:32:41;;;;;;;7.50;3.38;;;;;;;;;;5033445;28;20046;-59
2022/04/13 07:35:07;;;;;;;6.32;3.58;;;;;;;;;;5033675;28;20025;-60
2022/04/13 07:37:33;;;;;;;6.97;3.67;;;;;;;;;;5032453;28;20021;-60
2022/04/13 07:39:59;;;;;;;6.63;3.40;;;;;;;;;;5032086;28;20029;-60
2022/04/13 07:42:26;;;;;;;6.00;3.55;;;;;;;;;;5032909;28;20101;-61
2022/04/13 07:44:52;;;;;;;7.03;3.08;;;;;;;;;;5033076;28;20072;-60
2022/04/13 07:47:22;;;;;;;6.70;3.45;;;;;;;;;;5032875;28;20022;-60
2022/04/13 07:49:49;;;;;;;6.32;3.30;;;;;;;;;;5032534;28;20033;-62
2022/04/13 07:52:15;;;;;;;6.20;3.10;;;;;;;;;;5032746;28;20022;-59
2022/04/13 07:54:41;;;;;;;7.90;3.20;;;;;;;;;;5031342;28;20299;-61
2022/04/13 07:57:07;;;;;;;7.30;3.17;;;;;;;;;;5032780;28;20042;-62
2022/04/13 07:59:34;;;;;;;4.28;2.53;;;;;;;;;;5032668;28;20077;-61
2022/04/13 08:02:01;;;;;;;6.50;3.30;;;;;;;;;;5032342;28;20025;-60
2022/04/13 08:04:27;;;;;;;6.32;3.38;;;;;;;;;;5032265;28;20083;-60
2022/04/13 08:06:53;;;;;;;5.55;3.03;;;;;;;;;;5032883;28;20090;-61
2022/04/13 08:09:19;;;;;;;7.15;3.47;;;;;;;;;;5032139;28;20024;-60
2022/04/13 08:11:45;;;;;;;7.53;3.38;;;;;;;;;;5032473;28;20021;-64
2022/04/13 08:14:12;;;;;;;5.25;2.88;;;;;;;;;;5032396;28;20028;-59
2022/04/13 08:16:38;;;;;;;6.68;3.40;;;;;;;;;;5032122;28;20584;-60
2022/04/13 08:19:05;;;;;;;9.38;3.70;;;;;;;;;;5032558;28;20037;-59
2022/04/13 08:21:33;;;;;;;8.25;3.80;;;;;;;;;;5032315;28;20033;-60
2022/04/13 08:23:59;;;;;;;7.72;3.35;;;;;;;;;;5032764;28;20040;-60
2022/04/13 08:26:25;;;;;;;8.13;3.50;;;;;;;;;;5032161;28;20100;-60
2022/04/13 08:28:51;;;;;;;6.60;3.08;;;;;;;;;;5032348;28;20037;-59
2022/04/13 08:31:18;;;;;;;6.15;3.53;;;;;;;;;;5031749;28;20021;-60
2022/04/13 08:33:46;;;;;;;6.75;3.45;;;;;;;;;;5032374;28;20061;-60
2022/04/13 08:36:12;;;;;;;9.00;3.85;;;;;;;;;;5032475;28;20052;-61
2022/04/13 08:38:38;;;;;;;6.80;3.80;;;;;;;;;;5031951;28;20370;-60
2022/04/13 08:41:12;;;;;;;6.13;3.88;;;;;;;;;;5032013;28;20424;-61
2022/04/13 08:43:59;;;;;;;7.95;4.63;;;;;;;;;;5032023;28;20083;-60
2022/04/13 08:46:26;;;;;;;5.75;3.03;;;;;;;;;;5031922;28;20030;-59
2022/04/13 08:48:55;;;;;;;9.73;4.10;;;;;;;;;;5031980;28;20028;-64
2022/04/13 08:51:22;;;;;;;5.82;3.65;;;;;;;;;;5031946;28;20040;-61
2022/04/13 08:54:02;;;;;;;6.30;3.60;;;;;;;;;;5031461;28;20427;-60
2022/04/13 08:56:29;;;;;;;8.90;4.40;;;;;;;;;;5031422;28;20046;-62
2022/04/13 08:59:06;;;;;;;8.38;4.30;;;;;;;;;;5031713;28;20042;-61
2022/04/13 09:01:57;;;;;;;8.25;4.50;;;;;;;;;;5031083;28;20056;-61
2022/04/13 09:04:26;;;;;;;4.93;3.93;;;;;;;;;;5031926;28;20051;-61
2022/04/13 09:06:55;;;;;;;6.63;3.45;;;;;;;;;;5031471;28;20084;-61
2022/04/13 09:09:28;;;;;;;6.38;3.50;;;;;;;;;;5031285;28;20028;-61
2022/04/13 09:11:56;;;;;;;13.00;7.22;;;;;;;;;;5031070;28;20068;-61
2022/04/13 09:14:22;;;;;;;8.20;4.30;;;;;;;;;;5032828;28;20040;-60
2022/04/13 09:16:49;;;;;;;8.68;4.22;;;;;;;;;;5051308;28;20029;-61
2022/04/13 09:19:17;;;;;;;8.82;4.80;;;;;;;;;;5050993;28;20040;-61
2022/04/13 09:21:44;;;;;;;9.95;4.30;;;;;;;;;;5051059;28;20021;-64
2022/04/13 09:24:10;;;;;;;8.07;4.78;;;;;;;;;;5048806;28;20037;-62
2022/04/13 09:26:36;;;;;;;8.32;5.43;;;;;;;;;;5046883;28;20021;-63
2022/04/13 09:29:02;;;;;;;8.50;5.15;;;;;;;;;;5035647;28;20026;-62
2022/04/13 09:31:28;;;;;;;9.30;5.63;;;;;;;;;;5031005;28;20080;-60
2022/04/13 09:33:55;;;;;;;10.82;4.90;;;;;;;;;;5031102;28;20424;-61
2022/04/13 09:36:21;;;;;;;10.80;5.22;;;;;;;;;;5030984;28;20347;-60
2022/04/13 09:38:49;;;;;;;8.73;5.03;;;;;;;;;;5030519;28;20037;-63
2022/04/13 09:41:15;;;;;;;9.38;4.70;;;;;;;;;;5030381;28;20105;-61
2022/04/13 09:43:41;;;;;;;9.35;5.45;;;;;;;;;;5030400;28;20053;-60
2022/04/13 09:46:08;;;;;;;13.05;5.80;;;;;;;;;;5030772;28;20037;-61
2022/04/13 09:48:34;;;;;;;10.40;5.18;;;;;;;;;;5030561;28;20037;-64
2022/04/13 09:51:02;;;;;;;11.93;5.40;;;;;;;;;;5030940;28;20487;-60
2022/04/13 09:53:28;;;;;;;12.00;5.63;;;;;;;;;;5030270;28;20535;-60
2022/04/13 09:55:56;;;;;;;8.55;4.85;;;;;;;;;;5030306;28;20050;-60
2022/04/13 09:58:25;;;;;;;8.65;5.28;;;;;;;;;;5030547;28;20033;-61
2022/04/13 10:00:52;;;;;;;11.13;4.57;;;;;;;;;;5030536;28;20029;-60
2022/04/13 10:03:20;;;;;;;10.15;4.80;;;;;;;;;;5030358;28;20503;-62
2022/04/13 10:05:50;;;;;;;11.90;5.47;;;;;;;;;;5030811;28;20105;-60
2022/04/13 10:08:22;;;;;;;11.95;5.78;;;;;;;;;;5030133;28;20480;-61
2022/04/13 10:10:49;;;;;;;12.52;4.53;;;;;;;;;;5029242;28;20480;-60
2022/04/13 10:13:31;;;;;;;9.57;4.90;;;;;;;;;;5030686;28;20033;-64
2022/04/13 10:15:57;;;;;;;11.35;5.38;;;;;;;;;;5030092;28;20883;-60
2022/04/13 10:18:23;;;;;;;7.72;5.20;;;;;;;;;;5029565;28;20401;-60
2022/04/13 10:20:49;;;;;;;8.77;4.68;;;;;;;;;;5030298;28;20022;-61
2022/04/13 10:23:16;;;;;;;8.95;4.93;;;;;;;;;;5030005;28;20032;-61
2022/04/13 10:25:43;;;;;;;9.25;4.72;;;;;;;;;;5030081;28;20021;-62
2022/04/13 10:28:12;;;;;;;11.55;4.93;;;;;;;;;;5030240;28;20033;-60
2022/04/13 10:30:39;;;;;;;10.20;5.35;;;;;;;;;;5030474;28;20366;-63
2022/04/13 10:33:08;;;;;;;9.43;4.45;;;;;;;;;;5030112;28;20118;-60
2022/04/13 10:35:35;;;;;;;9.00;4.68;;;;;;;;;;5029957;28;20030;-61
2022/04/13 10:38:03;;;;;;;8.05;4.28;;;;;;;;;;5030019;28;20029;-60
2022/04/13 10:40:33;;;;;;;8.65;4.63;;;;;;;;;;5030075;28;20046;-62
2022/04/13 10:43:01;;;;;;;8.18;4.93;;;;;;;;;;5030189;28;20032;-60
2022/04/13 10:45:28;;;;;;;9.50;4.57;;;;;;;;;;5029993;28;20026;-61
2022/04/13 10:47:58;;;;;;;8.93;4.90;;;;;;;;;;5030081;28;20032;-60
2022/04/13 10:50:37;;;;;;;9.75;4.45;;;;;;;;;;5030318;28;20024;-61
2022/04/13 10:53:15;;;;;;;8.27;4.70;;;;;;;;;;5029717;28;20484;-61
2022/04/13 10:55:42;;;;;;;8.77;4.30;;;;;;;;;;5029805;28;20057;-61
2022/04/13 10:58:08;;;;;;;7.57;4.35;;;;;;;;;;5033395;28;20484;-61
2022/04/13 11:00:36;;;;;;;7.60;4.05;;;;;;;;;;5038404;28;20032;-63
2022/04/13 11:03:03;;;;;;;7.65;3.63;;;;;;;;;;5040114;28;20017;-61
2022/04/13 11:05:30;;;;;;;7.25;3.78;;;;;;;;;;5032495;28;20036;-62
2022/04/13 11:08:01;;;;;;;7.40;3.90;;;;;;;;;;5029769;28;20037;-59
2022/04/13 11:10:30;;;;;;;8.57;3.87;;;;;;;;;;5030089;28;20029;-60
2022/04/13 11:12:57;;;;;;;8.55;4.05;;;;;;;;;;5032084;28;20476;-59
2022/04/13 11:15:39;;;;;;;8.75;4.60;;;;;;;;;;5036754;28;20075;-61
2022/04/13 11:18:09;;;;;;;6.80;4.20;;;;;;;;;;5029696;28;20026;-61
2022/04/13 11:20:35;;;;;;;8.63;4.45;;;;;;;;;;5031795;28;20025;-59
2022/04/13 11:23:08;;;;;;;9.50;4.70;;;;;;;;;;5039801;28;20504;-59
2022/04/13 11:25:51;;;;;;;9.10;4.07;;;;;;;;;;5039225;28;20035;-59
2022/04/13 11:28:27;;;;;;;8.68;3.70;;;;;;;;;;5038813;28;20072;-60
2022/04/13 11:31:00;;;;;;;7.20;3.63;;;;;;;;;;5040869;28;20025;-60
2022/04/13 11:33:39;;;;;;;9.10;4.93;;;;;;;;;;5040931;28;20096;-60
2022/04/13 11:36:05;;;;;;;8.95;4.30;;;;;;;;;;5042635;28;20038;-60
2022/04/13 11:38:36;;;;;;;10.57;4.88;;;;;;;;;;5041120;28;20040;-61
2022/04/13 11:41:09;;;;;;;8.10;4.40;;;;;;;;;;5042027;28;20084;-61
2022/04/13 11:43:35;;;;;;;7.40;4.47;;;;;;;;;;5042473;28;20071;-60
2022/04/13 11:46:01;;;;;;;8.57;3.67;;;;;;;;;;5041329;28;20025;-61
2022/04/13 11:48:34;;;;;;;8.88;4.22;;;;;;;;;;5041360;28;20090;-61
2022/04/13 11:50:59;;;;;;;;;;;;;;;;;;5042747;28;20028;-59
2022/04/13 11:53:29;;;;;;;9.00;4.85;;;;;;;;;;5041495;28;19905;-60
2022/04/13 11:56:00;;;;;;;9.90;4.70;;;;;;;;;;5040341;28;20071;-60
2022/04/13 11:58:26;;;;;;;9.23;5.00;;;;;;;;;;5046306;28;20099;-60
2022/04/13 12:01:08;;;;;;;8.63;4.95;;;;;;;;;;5034779;28;20037;-60
2022/04/13 12:03:35;;;;;;;14.13;5.00;;;;;;;;;;5033000;28;20029;-60
2022/04/13 12:06:07;;;;;;;11.90;5.40;;;;;;;;;;5032804;28;20100;-60
2022/04/13 12:08:53;;;;;;;11.30;5.27;;;;;;;;;;5032733;28;20500;-63
2022/04/13 12:11:20;;;;;;;10.43;4.55;;;;;;;;;;5032437;28;20025;-60
2022/04/13 12:13:46;;;;;;;8.50;4.57;;;;;;;;;;5032308;28;20117;-59
2022/04/13 12:16:17;;;;;;;10.70;5.63;;;;;;;;;;5032200;28;20093;-60
2022/04/13 12:18:43;;;;;;;11.20;5.18;;;;;;;;;;5032193;28;20083;-60
2022/04/13 12:21:11;;;;;;;13.75;5.75;;;;;;;;;;5032561;28;20028;-59
2022/04/13 12:23:38;;;;;;;11.63;5.20;;;;;;;;;;5032502;28;20036;-58
2022/04/13 12:26:05;;;;;;;9.30;4.75;;;;;;;;;;5032422;28;20068;-60
2022/04/13 12:28:31;;;;;;;9.05;5.00;;;;;;;;;;5032033;28;20074;-60
2022/04/13 12:31:08;;;;;;;11.15;5.20;;;;;;;;;;5032336;28;20036;-60
2022/04/13 12:33:35;;;;;;;11.23;4.72;;;;;;;;;;5032735;28;20067;-61
2022/04/13 12:36:02;;;;;;;11.45;4.93;;;;;;;;;;5032289;28;20030;-60
2022/04/13 12:38:29;;;;;;;10.27;5.15;;;;;;;;;;5032134;28;20083;-62
2022/04/13 12:41:09;;;;;;;11.15;5.13;;;;;;;;;;5031444;28;20066;-61
2022/04/13 12:43:36;;;;;;;8.85;4.20;;;;;;;;;;5031406;28;20053;-59
2022/04/13 12:46:12;;;;;;;8.95;4.68;;;;;;;;;;5034223;28;20469;-66
2022/04/13 12:48:39;;;;;;;7.80;3.65;;;;;;;;;;5042041;28;20366;-64
2022/04/13 12:51:06;;;;;;;9.40;5.00;;;;;;;;;;5050821;28;20029;-62
2022/04/13 12:53:41;;;;;;;11.77;5.78;;;;;;;;;;5033708;28;20033;-66
2022/04/13 12:56:10;;;;;;;11.88;4.80;;;;;;;;;;5031140;28;20049;-59
2022/04/13 12:58:38;;;;;;;7.18;4.55;;;;;;;;;;5031195;28;20038;-60
2022/04/13 13:01:04;;;;;;;6.97;4.30;;;;;;;;;;5031435;28;20419;-59
2022/04/13 13:03:34;;;;;;;10.93;4.82;;;;;;;;;;5031597;28;20021;-60
2022/04/13 13:06:13;;;;;;;9.90;4.53;;;;;;;;;;5031926;28;20489;-60
2022/04/13 13:08:51;;;;;;;8.82;4.60;;;;;;;;;;5031095;28;20037;-60
2022/04/13 13:11:18;;;;;;;8.15;4.13;;;;;;;;;;5031464;28;20034;-63
2022/04/13 13:13:44;;;;;;;9.35;4.63;;;;;;;;;;5039892;28;20033;-60
2022/04/13 13:16:29;;;;;;;8.52;4.70;;;;;;;;;;5039404;28;20029;-65
2022/04/13 13:19:12;;;;;;;11.02;4.50;;;;;;;;;;5040975;28;20041;-63
2022/04/13 13:21:57;;;;;;;10.25;4.40;;;;;;;;;;5040227;28;20100;-61
2022/04/13 13:24:27;;;;;;;7.47;4.28;;;;;;;;;;5040063;28;20037;-59
2022/04/13 13:26:53;;;;;;;7.57;4.03;;;;;;;;;;5039550;28;20147;-65
2022/04/13 13:29:19;;;;;;;5.85;3.15;;;;;;;;;;5045854;28;20045;-60
2022/04/13 13:31:45;;;;;;;7.70;3.90;;;;;;;;;;5050610;28;20028;-58
2022/04/13 13:34:20;;;;;;;5.93;3.60;;;;;;;;;;5050904;28;20057;-59
2022/04/13 13:36:58;;;;;;;8.40;3.55;;;;;;;;;;5051046;28;20025;-60
2022/04/13 13:39:25;;;;;;;8.10;3.53;;;;;;;;;;5050935;28;20037;-59
2022/04/13 13:42:08;;;;;;;6.55;3.35;;;;;;;;;;5050626;28;20092;-67
2022/04/13 13:44:34;;;;;;;8.35;3.60;;;;;;;;;;5050285;28;20044;-60
2022/04/13 13:47:00;;;;;;;8.48;3.78;;;;;;;;;;5041051;28;20559;-59
2022/04/13 13:49:27;;;;;;;8.43;3.55;;;;;;;;;;5039490;28;20029;-61
2022/04/13 13:51:56;;;;;;;8.23;3.97;;;;;;;;;;5037697;28;20026;-65
2022/04/13 13:54:23;;;;;;;5.55;3.20;;;;;;;;;;5038666;28;20028;-60
2022/04/13 13:56:49;;;;;;;6.25;3.30;;;;;;;;;;5040270;28;20132;-62
2022/04/13 13:59:15;;;;;;;4.97;2.65;;;;;;;;;;5038988;28;20499;-60
2022/04/13 14:01:42;;;;;;;6.10;3.05;;;;;;;;;;5039182;28;20040;-59
2022/04/13 14:04:08;;;;;;;6.75;2.38;;;;;;;;;;5038948;28;20116;-60
2022/04/13 14:06:34;;;;;;;5.80;2.58;;;;;;;;;;5038473;28;20055;-63
2022/04/13 14:09:00;;;;;;;7.35;2.72;;;;;;;;;;5037640;28;20025;-69
2022/04/13 14:11:26;;;;;;;6.45;3.17;;;;;;;;;;5037115;28;20102;-64
2022/04/13 14:13:52;;;;;;;5.60;2.58;;;;;;;;;;5029938;28;20493;-60
2022/04/13 14:16:18;;;;;;;7.22;2.70;;;;;;;;;;5029753;28;20025;-60
2022/04/13 14:18:44;;;;;;;5.90;2.70;;;;;;;;;;5030199;28;20038;-62
2022/04/13 14:21:11;;;;;;;5.07;2.90;;;;;;;;;;5030366;28;20072;-64
2022/04/13 14:23:37;;;;;;;6.13;2.53;;;;;;;;;;5030060;28;20116;-64
2022/04/13 14:26:04;;;;;;;5.97;2.67;;;;;;;;;;5038459;28;20087;-61
2022/04/13 14:28:30;;;;;;;5.25;2.58;;;;;;;;;;5037732;28;20036;-61
2022/04/13 14:30:56;;;;;;;6.93;2.15;;;;;;;;;;5032569;28;20104;-60
2022/04/13 14:33:22;;;;;;;4.32;1.90;;;;;;;;;;5030158;28;20024;-66
2022/04/13 14:35:48;;;;;;;4.55;1.80;;;;;;;;;;5030636;28;20036;-62
2022/04/13 14:38:15;;;;;;;3.50;1.85;;;;;;;;;;5033358;28;20042;-62